Tuesday, March 3, 2015, 11:17 PM EST

KFYJ, West Point, Middle Peninsula Regional Airport

Location: Shacklefords, VA, United States Lat: 37.521
Local Time: 11:17 PM EST ( 4:17 GMT) Lon: -76.764
Time Zone: US/Eastern Elev: 22 ft

Show me the last for .
Show Decoded

2015-03-03 22:35 METAR KFYJ 040335Z AUTO 22006KT 3SM OVC006 04/02 A3007 RMK AO2 T00350016 =
2015-03-03 22:15 METAR KFYJ 040315Z AUTO 22006KT 5SM OVC006 04/02 A3007 RMK AO2 T00350015 =
2015-03-03 21:55 METAR KFYJ 040255Z AUTO 23005KT 5SM OVC008 04/01 A3008 RMK AO2 T00350013 =
2015-03-03 21:35 METAR KFYJ 040235Z AUTO 20006KT 4SM OVC008 04/01 A3008 RMK AO2 T00350010 =
2015-03-03 21:15 METAR KFYJ 040215Z AUTO 22005KT 5SM OVC008 04/01 A3010 RMK AO2 T00350007 =
2015-03-03 20:35 METAR KFYJ 040135Z AUTO 22006KT 10SM OVC010 04/00 A3012 RMK AO2 T00370003 =
2015-03-03 20:15 METAR KFYJ 040115Z AUTO 23006KT 10SM OVC012 04/00 A3013 RMK AO2 T00380000 =
2015-03-03 19:55 METAR KFYJ 040055Z AUTO 20006KT 10SM OVC014 04/00 A3011 RMK AO2 T00371003 =
2015-03-03 19:35 METAR KFYJ 040035Z AUTO 18006KT 10SM OVC014 04/M01 A3012 RMK AO2 T00371012 =
2015-03-03 19:15 METAR KFYJ 040015Z AUTO 19004KT 10SM OVC016 04/M02 A3014 RMK AO2 T00381016 =
2015-03-03 18:55 METAR KFYJ 032355Z AUTO 22005KT 10SM OVC016 04/M02 A3016 RMK AO2 T00381022 10040
                 20025 =
2015-03-03 18:35 METAR KFYJ 032335Z AUTO 20005KT 10SM OVC016 04/M03 A3016 RMK AO2 T00391030 =
2015-03-03 18:15 METAR KFYJ 032315Z AUTO 17005KT 10SM OVC018 04/M03 A3016 RMK AO2 T00381030 =
2015-03-03 17:55 METAR KFYJ 032255Z AUTO 19003KT 10SM OVC020 04/M03 A3018 RMK AO2 T00371030 =
2015-03-03 17:35 METAR KFYJ 032235Z AUTO 00000KT 10SM OVC020 04/M02 A3018 RMK AO2 T00351021 =
2015-03-03 17:15 METAR KFYJ 032215Z AUTO 00000KT 10SM OVC022 04/M02 A3019 RMK AO2 T00351024 =
2015-03-03 16:55 METAR KFYJ 032155Z AUTO 00000KT 10SM OVC024 04/M03 A3021 RMK AO2 T00351029 =
2015-03-03 16:35 METAR KFYJ 032135Z AUTO 00000KT 10SM OVC026 04/M03 A3021 RMK AO2 T00351030 =
2015-03-03 16:15 METAR KFYJ 032115Z AUTO 00000KT 10SM OVC028 04/M03 A3023 RMK AO2 T00351035 =
2015-03-03 15:55 METAR KFYJ 032055Z AUTO 15004KT 10SM OVC028 04/M04 A3022 RMK AO2 T00351038 =
2015-03-03 15:35 METAR KFYJ 032035Z AUTO 14006KT 10SM OVC028 04/M04 A3024 RMK AO2 T00351041 =
2015-03-03 15:15 METAR KFYJ 032015Z AUTO 14005KT 10SM BKN028 BKN032 OVC040 03/M04 A3024 RMK AO2
                 T00331042 =
2015-03-03 14:55 METAR KFYJ 031955Z AUTO 14005KT 10SM SCT034 OVC042 03/M04 A3026 RMK AO2
                 T00321045 =
2015-03-03 14:35 METAR KFYJ 031935Z AUTO 15004KT 10SM OVC044 03/M05 A3027 RMK AO2 T00331050 =
2015-03-03 14:15 METAR KFYJ 031915Z AUTO 14005KT 10SM SCT040 OVC046 03/M05 A3028 RMK AO2
                 T00311046 =
2015-03-03 13:55 METAR KFYJ 031855Z AUTO 14007KT 10SM BKN033 OVC040 03/M05 A3031 RMK AO2
                 T00301047 =
2015-03-03 13:35 METAR KFYJ 031835Z AUTO 14004KT 10SM OVC033 03/M05 A3033 RMK AO2 T00261049 =
2015-03-03 13:15 METAR KFYJ 031815Z AUTO 15006KT 10SM BKN035 OVC043 03/M05 A3034 RMK AO2
                 T00261049 =
2015-03-03 12:55 METAR KFYJ 031755Z AUTO 15009KT 10SM BKN037 OVC043 03/M06 A3035 RMK AO2
                 T00261056 10029 21032 =
2015-03-03 12:35 METAR KFYJ 031735Z AUTO 15006KT 10SM OVC037 03/M06 A3038 RMK AO2 T00251064 =
2015-03-03 12:15 METAR KFYJ 031715Z AUTO 15007KT 10SM BKN039 OVC050 02/M07 A3040 RMK AO2
                 T00241067 =
2015-03-03 11:55 METAR KFYJ 031655Z AUTO 17006KT 10SM OVC050 03/M06 A3042 RMK AO2 T00271064 =
2015-03-03 11:35 METAR KFYJ 031635Z AUTO 16005KT 10SM OVC050 03/M06 A3042 RMK AO2 T00281061 =
2015-03-03 11:15 METAR KFYJ 031615Z AUTO 14007KT 10SM SCT042 OVC050 03/M07 A3043 RMK AO2
                 T00281070 =
2015-03-03 10:55 METAR KFYJ 031555Z AUTO 10006KT 10SM OVC050 03/M07 A3044 RMK AO2 T00271071 =
2015-03-03 10:35 METAR KFYJ 031535Z AUTO 08005KT 10SM OVC050 03/M07 A3045 RMK AO2 T00251071 =
2015-03-03 10:15 METAR KFYJ 031515Z AUTO 10007KT 10SM OVC050 02/M06 A3045 RMK AO2 T00241065 =
2015-03-03 09:55 METAR KFYJ 031455Z AUTO 09007KT 10SM OVC050 02/M07 A3047 RMK AO2 T00231070 =
2015-03-03 09:35 METAR KFYJ 031435Z AUTO 09004KT 10SM OVC050 02/M07 A3048 RMK AO2 T00211071 =
2015-03-03 09:15 METAR KFYJ 031415Z AUTO 08006KT 10SM OVC050 02/M07 A3047 RMK AO2 T00171067 =
2015-03-03 08:55 METAR KFYJ 031355Z AUTO 08007KT 10SM OVC055 02/M06 A3047 RMK AO2 T00151063 =
2015-03-03 08:35 METAR KFYJ 031335Z AUTO 00000KT 10SM OVC065 01/M06 A3047 RMK AO2 T00111060 =
2015-03-03 08:15 METAR KFYJ 031315Z AUTO 00000KT 10SM BKN065 01/M03 A3047 RMK AO2 T00051035 =
2015-03-03 07:55 METAR KFYJ 031255Z AUTO 00000KT 10SM BKN065 M01/M04 A3048 RMK AO2 T10071039 =
2015-03-03 07:35 METAR KFYJ 031235Z AUTO 00000KT 10SM SCT065 M02/M05 A3046 RMK AO2 T10181046 =
2015-03-03 07:15 METAR KFYJ 031215Z AUTO 00000KT 10SM CLR M03/M06 A3046 RMK AO2 T10301056 =
2015-03-03 06:55 METAR KFYJ 031155Z AUTO 00000KT 10SM CLR M03/M06 A3045 RMK AO2 T10321060 11006
                 21035 =
2015-03-03 06:35 METAR KFYJ 031135Z AUTO 00000KT 10SM CLR M03/M06 A3044 RMK AO2 T10271056 =
2015-03-03 06:15 METAR KFYJ 031115Z AUTO 00000KT 10SM CLR M03/M06 A3045 RMK AO2 T10271056 =
2015-03-03 05:55 METAR KFYJ 031055Z AUTO 00000KT 10SM CLR M03/M06 A3044 RMK AO2 T10341063 =
2015-03-03 05:35 METAR KFYJ 031035Z AUTO 00000KT 10SM CLR M02/M06 A3044 RMK AO2 T10251062 =
2015-03-03 05:15 METAR KFYJ 031015Z AUTO 00000KT 10SM CLR M02/M05 A3045 RMK AO2 T10251055 =
2015-03-03 04:55 METAR KFYJ 030955Z AUTO 00000KT 10SM CLR M02/M06 A3044 RMK AO2 T10231056 =
2015-03-03 04:35 METAR KFYJ 030935Z AUTO 00000KT 10SM SCT120 M02/M06 A3043 RMK AO2 T10231059 =
2015-03-03 04:15 METAR KFYJ 030915Z AUTO 00000KT 10SM BKN120 M01/M06 A3043 RMK AO2 T10111065 =
2015-03-03 03:55 METAR KFYJ 030855Z AUTO 00000KT 10SM SCT120 M02/M06 A3042 RMK AO2 T10191065 =
2015-03-03 03:35 METAR KFYJ 030835Z AUTO 00000KT 10SM CLR M02/M06 A3041 RMK AO2 T10221064 =
2015-03-03 03:15 METAR KFYJ 030815Z AUTO 00000KT 10SM CLR M01/M07 A3041 RMK AO2 T10061071 =
2015-03-03 02:55 METAR KFYJ 030755Z AUTO 05004KT 10SM CLR M02/M05 A3041 RMK AO2 T10201053 =
2015-03-03 02:15 METAR KFYJ 030715Z AUTO 00000KT 10SM CLR M03/M06 A3043 RMK AO2 T10271056 =
2015-03-03 01:55 METAR KFYJ 030655Z AUTO 00000KT 10SM CLR M02/M06 A3043 RMK AO2 T10241064 =
2015-03-03 01:35 METAR KFYJ 030635Z AUTO 00000KT 10SM CLR M01/M07 A3044 RMK AO2 T10091069 =
2015-03-03 00:55 METAR KFYJ 030555Z AUTO 00000KT 10SM CLR M01/M06 A3043 RMK AO2 T10101057 10058
                 21026 401131026 =
2015-03-03 00:35 METAR KFYJ 030535Z AUTO 00000KT 10SM CLR M01/M07 A3044 RMK AO2 T10081067 =
2015-03-03 00:15 METAR KFYJ 030515Z AUTO 01003KT 10SM CLR M02/M05 A3043 RMK AO2 T10191054 =
2015-03-02 23:55 METAR KFYJ 030455Z AUTO 00000KT 10SM CLR M02/M05 A3043 RMK AO2 T10211054 =
2015-03-02 23:35 METAR KFYJ 030435Z AUTO 00000KT 10SM CLR M02/M05 A3044 RMK AO2 T10201051 =

Support USWX by starting your Amazon purchase here.